Time;durP1;ratioP1;P1;durP2;ratioP2;P2;SDS_P1;SDS_P2;PMS_P1;PMS_P2;Temp;Humidity;BMP_temperature;BMP_pressure;BME280_temperature;BME280_humidity;BME280_pressure;Samples;Min_cycle;Max_cycle;Signal;HPM_P1;HPM_P2
2022/06/20 00:01:23;;;;;;;;;;;;;;;-146.27;100.00;64033.13;5111943;28;19923;-48
2022/06/20 00:03:50;;;;;;;;;;;;;;;-146.27;100.00;64033.13;5111337;28;19916;-47
2022/06/20 00:06:17;;;;;;;;;;;;;;;-146.27;100.00;64033.13;5111623;28;19998;-49
2022/06/20 00:08:42;;;;;;;;;;;;;;;-146.27;100.00;64033.13;5109894;28;20307;-48
2022/06/20 00:11:14;;;;;;;;;;;;;;;-146.27;100.00;64033.13;5091343;28;19927;-48
2022/06/20 00:13:40;;;;;;;;;;;;;;;-146.27;100.00;64033.13;5091076;28;19916;-48
2022/06/20 00:16:06;;;;;;;;;;;;;;;-146.27;100.00;64033.13;5091449;28;20315;-48
2022/06/20 00:18:31;;;;;;;;;;;;;;;-146.27;100.00;64033.13;5091307;28;19912;-49
2022/06/20 00:20:56;;;;;;;;;;;;;;;-146.27;100.00;64033.13;5101436;28;19912;-48
2022/06/20 00:23:22;;;;;;;;;;;;;;;-146.27;100.00;64033.13;5111853;28;19915;-48
2022/06/20 00:25:48;;;;;;;;;;;;;;;-146.27;100.00;64033.13;5094195;28;20403;-48
2022/06/20 00:28:13;;;;;;;;;;;;;;;-146.27;100.00;64033.13;5091102;28;19923;-50
2022/06/20 00:30:39;;;;;;;;;;;;;;;-146.27;100.00;64033.13;5091221;28;20351;-51
2022/06/20 00:33:05;;;;;;;;;;;;;;;-146.27;100.00;64033.13;5090695;28;19916;-48
2022/06/20 00:35:31;;;;;;;;;;;;;;;-146.27;100.00;64033.13;5090695;28;19958;-52
2022/06/20 00:37:58;;;;;;;;;;;;;;;-146.27;100.00;64033.13;5091542;28;19919;-50
2022/06/20 00:40:26;;;;;;;;;;;;;;;-146.27;100.00;64033.13;5090943;28;19916;-50
2022/06/20 00:42:51;;;;;;;;;;;;;;;-146.27;100.00;64033.13;5091431;28;20447;-52
2022/06/20 00:45:17;;;;;;;;;;;;;;;-146.27;100.00;64033.13;5091215;28;20003;-51
2022/06/20 00:47:43;;;;;;;;;;;;;;;-146.27;100.00;64033.13;5091556;28;20163;-51
2022/06/20 00:50:14;;;;;;;;;;;;;;;-146.27;100.00;64033.13;5091485;28;20446;-49
2022/06/20 00:52:43;;;;;;;;;;;;;;;-146.27;100.00;64033.13;5091563;28;20432;-49
2022/06/20 00:55:11;;;;;;;;;;;;;;;-146.27;100.00;64033.13;5091207;28;19938;-50
2022/06/20 00:57:41;;;;;;;;;;;;;;;-146.27;100.00;64033.13;5092117;28;19912;-51
2022/06/20 01:00:10;;;;;;;;;;;;;;;-146.27;100.00;64033.13;5095264;28;19977;-50
2022/06/20 01:02:38;;;;;;;;;;;;;;;-146.27;100.00;64033.13;5095330;28;20387;-49
2022/06/20 01:05:09;;;;;;;;;;;;;;;-146.27;100.00;64033.13;5095204;28;20384;-49
2022/06/20 01:07:42;;;;;;;;;;;;;;;-146.27;100.00;64033.13;5095077;28;19913;-48
2022/06/20 01:10:09;;;;;;;;;;;;;;;-146.27;100.00;64033.13;5095578;28;20029;-48
2022/06/20 01:12:41;;;;;;;;;;;;;;;-146.27;100.00;64033.13;5095440;28;19912;-48
2022/06/20 01:15:17;;;;;;;;;;;;;;;-146.27;100.00;64033.13;5095680;28;19912;-49
2022/06/20 01:17:43;;;;;;;;;;;;;;;-146.27;100.00;64033.13;5095271;28;20267;-48
2022/06/20 01:20:18;;;;;;;;;;;;;;;-146.27;100.00;64033.13;5098980;28;19965;-51
2022/06/20 01:23:02;;;;;;;;;;;;;;;-146.27;100.00;64033.13;5115627;28;20101;-48
2022/06/20 01:25:39;;;;;;;;;;;;;;;-146.27;100.00;64033.13;5115891;28;19911;-49
2022/06/20 01:28:09;;;;;;;;;;;;;;;-146.27;100.00;64033.13;5115323;28;19912;-50
2022/06/20 01:30:37;;;;;;;;;;;;;;;-146.27;100.00;64033.13;5115788;28;19911;-48
2022/06/20 01:33:03;;;;;;;;;;;;;;;-146.27;100.00;64033.13;5115644;28;20306;-48
2022/06/20 01:38:14;;;;;;;;;;;;;;;-146.27;100.00;64033.13;5097927;28;19919;-48
2022/06/20 01:42:18;;;;;;;;;;;;;;;-146.27;100.00;64033.13;5094792;28;19912;-48
2022/06/20 01:43:27;;;;;;;;;;;;;;;-146.27;100.00;64033.13;5094333;28;20019;-48
2022/06/20 01:45:58;;;;;;;;;;;;;;;-146.27;100.00;64033.13;5094541;28;20375;-50
2022/06/20 01:48:25;;;;;;;;;;;;;;;-146.27;100.00;64033.13;5095232;28;20116;-50
2022/06/20 01:50:51;;;;;;;;;;;;;;;-146.27;100.00;64033.13;5094291;28;19912;-48
2022/06/20 01:53:18;;;;;;;;;;;;;;;-146.27;100.00;64033.13;5094758;28;20315;-48
2022/06/20 01:55:46;;;;;;;;;;;;;;;-146.27;100.00;64033.13;5094747;28;19920;-49
2022/06/20 01:58:14;;;;;;;;;;;;;;;-146.27;100.00;64033.13;5094797;28;20363;-49
2022/06/20 02:00:40;;;;;;;;;;;;;;;-146.27;100.00;64033.13;5094145;28;19923;-50
2022/06/20 02:03:07;;;;;;;;;;;;;;;-146.27;100.00;64033.13;5094057;28;20303;-48
2022/06/20 02:05:33;;;;;;;;;;;;;;;-146.27;100.00;64033.13;5094481;28;20368;-48
2022/06/20 02:08:04;;;;;;;;;;;;;;;-146.27;100.00;64033.13;5093983;28;19913;-49
2022/06/20 02:10:48;;;;;;;;;;;;;;;-146.27;100.00;64033.13;5094196;28;19966;-47
2022/06/20 02:13:13;;;;;;;;;;;;;;;-146.27;100.00;64033.13;5093908;28;19947;-48
2022/06/20 02:15:39;;;;;;;;;;;;;;;-146.27;100.00;64033.13;5094296;28;19946;-48
2022/06/20 02:18:07;;;;;;;;;;;;;;;-146.27;100.00;64033.13;5094011;28;19913;-48
2022/06/20 02:20:38;;;;;;;;;;;;;;;-146.27;100.00;64033.13;5100670;28;20026;-47
2022/06/20 02:23:03;;;;;;;;;;;;;;;-146.27;100.00;64033.13;5113780;28;20043;-47
2022/06/20 02:25:31;;;;;;;;;;;;;;;-146.27;100.00;64033.13;5114215;28;20424;-49
2022/06/20 02:27:58;;;;;;;;;;;;;;;-146.27;100.00;64033.13;5112828;28;19958;-47
2022/06/20 02:30:24;;;;;;;;;;;;;;;-146.27;100.00;64033.13;5114303;28;19981;-48
2022/06/20 02:32:51;;;;;;;;;;;;;;;-146.27;100.00;64033.13;5113817;28;20383;-47
2022/06/20 02:35:19;;;;;;;;;;;;;;;-146.27;100.00;64033.13;5113974;28;19995;-48
2022/06/20 02:37:45;;;;;;;;;;;;;;;-146.27;100.00;64033.13;5101332;28;19912;-48
2022/06/20 02:40:13;;;;;;;;;;;;;;;-146.27;100.00;64033.13;5093819;28;20002;-49
2022/06/20 02:42:45;;;;;;;;;;;;;;;-146.27;100.00;64033.13;5093525;28;19912;-50
2022/06/20 02:45:11;;;;;;;;;;;;;;;-146.27;100.00;64033.13;5093625;28;19916;-48
2022/06/20 02:47:41;;;;;;;;;;;;;;;-146.27;100.00;64033.13;5093486;28;19978;-50
2022/06/20 02:50:07;;;;;;;;;;;;;;;-146.27;100.00;64033.13;5093653;28;19912;-51
2022/06/20 02:52:37;;;;;;;;;;;;;;;-146.27;100.00;64033.13;5093089;28;19918;-48
2022/06/20 02:55:03;;;;;;;;;;;;;;;-146.27;100.00;64033.13;5093252;28;20367;-49
2022/06/20 02:57:34;;;;;;;;;;;;;;;-146.27;100.00;64033.13;5093448;28;19943;-48
2022/06/20 03:00:00;;;;;;;;;;;;;;;-146.27;100.00;64033.13;5092985;28;20415;-50
2022/06/20 03:02:27;;;;;;;;;;;;;;;-146.27;100.00;64033.13;5093014;28;19911;-47
2022/06/20 03:04:53;;;;;;;;;;;;;;;-146.27;100.00;64033.13;5092856;28;19916;-48
2022/06/20 03:07:21;;;;;;;;;;;;;;;-146.27;100.00;64033.13;5093473;28;19919;-47
2022/06/20 03:09:48;;;;;;;;;;;;;;;-146.27;100.00;64033.13;5092925;28;20337;-47
2022/06/20 03:12:14;;;;;;;;;;;;;;;-146.27;100.00;64033.13;5092616;28;19916;-47
2022/06/20 03:14:42;;;;;;;;;;;;;;;-146.27;100.00;64033.13;5092349;28;19912;-46
2022/06/20 03:17:08;;;;;;;;;;;;;;;-146.27;100.00;64033.13;5092685;28;19912;-38
2022/06/20 03:19:35;;;;;;;;;;;;;;;-146.27;100.00;64033.13;5091590;28;20375;-36
2022/06/20 03:22:05;;;;;;;;;;;;;;;-146.27;100.00;64033.13;5092150;28;19912;-37
2022/06/20 03:24:31;;;;;;;;;;;;;;;-146.27;100.00;64033.13;5091021;28;19948;-37
2022/06/20 03:26:57;;;;;;;;;;;;;;;-146.27;100.00;64033.13;5091998;28;20001;-38
2022/06/20 03:29:25;;;;;;;;;;;;;;;-146.27;100.00;64033.13;5091825;28;20012;-38
2022/06/20 03:31:50;;;;;;;;;;;;;;;-146.27;100.00;64033.13;5089685;28;19916;-37
2022/06/20 03:34:16;;;;;;;;;;;;;;;-146.27;100.00;64033.13;5092374;28;19920;-37
2022/06/20 03:36:42;;;;;;;;;;;;;;;-146.27;100.00;64033.13;5092200;28;19952;-38
2022/06/20 03:39:08;;;;;;;;;;;;;;;-146.27;100.00;64033.13;5092910;28;19991;-38
2022/06/20 03:41:34;;;;;;;;;;;;;;;-146.27;100.00;64033.13;5091737;28;19923;-38
2022/06/20 03:44:03;;;;;;;;;;;;;;;-146.27;100.00;64033.13;5092017;28;20647;-38
2022/06/20 03:46:47;;;;;;;;;;;;;;;-146.27;100.00;64033.13;5092337;28;20019;-38
2022/06/20 03:49:22;;;;;;;;;;;;;;;-146.27;100.00;64033.13;5092206;28;19961;-38
2022/06/20 03:51:51;;;;;;;;;;;;;;;-146.27;100.00;64033.13;5092070;28;19951;-37
2022/06/20 03:54:20;;;;;;;;;;;;;;;-146.27;100.00;64033.13;5092346;28;19919;-51
2022/06/20 03:56:48;;;;;;;;;;;;;;;-146.27;100.00;64033.13;5092757;28;20295;-49
2022/06/20 03:59:20;;;;;;;;;;;;;;;-146.27;100.00;64033.13;5091441;28;19916;-37
2022/06/20 04:01:50;;;;;;;;;;;;;;;-146.27;100.00;64033.13;5091648;28;19946;-51
2022/06/20 04:04:25;;;;;;;;;;;;;;;-146.27;100.00;64033.13;5090959;28;19923;-52
2022/06/20 04:06:55;;;;;;;;;;;;;;;-146.27;100.00;64033.13;5089020;28;19943;-51
2022/06/20 04:12:24;;;;;;;;;;;;;;;-146.27;100.00;64033.13;5090029;28;20429;-51
2022/06/20 04:15:01;;;;;;;;;;;;;;;-146.27;100.00;64033.13;5092166;28;19969;-52
2022/06/20 04:20:22;;;;;;;;;;;;;;;-146.27;100.00;64033.13;5096264;28;19918;-53
2022/06/20 04:22:50;;;;;;;;;;;;;;;-146.27;100.00;64033.13;5112070;28;20396;-50
2022/06/20 04:25:18;;;;;;;;;;;;;;;-146.27;100.00;64033.13;5082328;28;19960;-49
2022/06/20 04:27:46;;;;;;;;;;;;;;;-146.27;100.00;64033.13;5078857;28;19959;-51
2022/06/20 04:30:17;;;;;;;;;;;;;;;-146.27;100.00;64033.13;5076770;28;19916;-51
2022/06/20 04:32:47;;;;;;;;;;;;;;;-146.27;100.00;64033.13;5071446;28;19974;-51
2022/06/20 04:35:19;;;;;;;;;;;;;;;-146.27;100.00;64033.13;5071158;28;19974;-53
2022/06/20 04:37:48;;;;;;;;;;;;;;;-146.27;100.00;64033.13;5071438;28;19920;-51
2022/06/20 04:40:23;;;;;;;;;;;;;;;-146.27;100.00;64033.13;5081093;28;19911;-52
2022/06/20 04:42:48;;;;;;;;;;;;;;;-146.27;100.00;64033.13;5090989;28;20450;-50
2022/06/20 04:45:13;;;;;;;;;;;;;;;-146.27;100.00;64033.13;5089696;28;19916;-51
2022/06/20 04:47:41;;;;;;;;;;;;;;;-146.27;100.00;64033.13;5090570;28;19916;-48
2022/06/20 04:50:13;;;;;;;;;;;;;;;-146.27;100.00;64033.13;5088772;28;19912;-49
2022/06/20 04:52:38;;;;;;;;;;;;;;;-146.27;100.00;64033.13;5088359;28;19912;-49
2022/06/20 04:55:04;;;;;;;;;;;;;;;-146.27;100.00;64033.13;5088358;28;20410;-52
2022/06/20 04:57:31;;;;;;;;;;;;;;;-146.27;100.00;64033.13;5088691;28;19912;-51
2022/06/20 04:59:57;;;;;;;;;;;;;;;-146.27;100.00;64033.13;5089318;28;19980;-53
2022/06/20 05:02:24;;;;;;;;;;;;;;;-146.27;100.00;64033.13;5089471;28;19912;-53
2022/06/20 05:04:52;;;;;;;;;;;;;;;-146.27;100.00;64033.13;5089995;28;19920;-52
2022/06/20 05:07:24;;;;;;;;;;;;;;;-146.27;100.00;64033.13;5090005;28;19912;-50
2022/06/20 05:10:05;;;;;;;;;;;;;;;-146.27;100.00;64033.13;5090368;28;19999;-50
2022/06/20 05:12:41;;;;;;;;;;;;;;;-146.27;100.00;64033.13;5090108;28;19920;-54
2022/06/20 05:15:13;;;;;;;;;;;;;;;-146.27;100.00;64033.13;5090671;28;19952;-52
2022/06/20 05:17:40;;;;;;;;;;;;;;;-146.27;100.00;64033.13;5090440;28;19913;-53
2022/06/20 05:20:15;;;;;;;;;;;;;;;-146.27;100.00;64033.13;5093363;28;19923;-51
2022/06/20 05:22:44;;;;;;;;;;;;;;;-146.27;100.00;64033.13;5110203;28;19912;-53
2022/06/20 05:25:15;;;;;;;;;;;;;;;-146.27;100.00;64033.13;5110714;28;19996;-53
2022/06/20 05:27:45;;;;;;;;;;;;;;;-146.27;100.00;64033.13;5110755;28;19998;-51
2022/06/20 05:30:15;;;;;;;;;;;;;;;-146.27;100.00;64033.13;5110694;28;19922;-52
2022/06/20 05:32:45;;;;;;;;;;;;;;;-146.27;100.00;64033.13;5110671;28;19912;-52
2022/06/20 05:35:31;;;;;;;;;;;;;;;-146.27;100.00;64033.13;5110417;28;19923;-52
2022/06/20 05:38:00;;;;;;;;;;;;;;;-146.27;100.00;64033.13;5110558;28;19924;-52
2022/06/20 05:40:36;;;;;;;;;;;;;;;-146.27;100.00;64033.13;5097688;28;19934;-53
2022/06/20 05:43:01;;;;;;;;;;;;;;;-146.27;100.00;64033.13;5090369;28;19912;-52
2022/06/20 05:45:28;;;;;;;;;;;;;;;-146.27;100.00;64033.13;5093518;28;19912;-52
2022/06/20 05:47:54;;;;;;;;;;;;;;;-146.27;100.00;64033.13;5093883;28;19912;-52
2022/06/20 05:50:20;;;;;;;;;;;;;;;-146.27;100.00;64033.13;5093996;28;20002;-49
2022/06/20 05:52:46;;;;;;;;;;;;;;;-146.27;100.00;64033.13;5093592;28;19912;-52
2022/06/20 05:55:21;;;;;;;;;;;;;;;-146.27;100.00;64033.13;5093230;28;19919;-52
2022/06/20 05:57:50;;;;;;;;;;;;;;;-146.27;100.00;64033.13;5094276;28;20011;-51
2022/06/20 06:00:16;;;;;;;;;;;;;;;-146.27;100.00;64033.13;5093539;28;19939;-49
2022/06/20 06:02:47;;;;;;;;;;;;;;;-146.27;100.00;64033.13;5093229;28;19912;-52
2022/06/20 06:05:15;;;;;;;;;;;;;;;-146.27;100.00;64033.13;5093121;28;19995;-51
2022/06/20 06:07:43;;;;;;;;;;;;;;;-146.27;100.00;64033.13;5093443;28;19926;-52
2022/06/20 06:10:08;;;;;;;;;;;;;;;-146.27;100.00;64033.13;5093757;28;20105;-51
2022/06/20 06:12:40;;;;;;;;;;;;;;;-146.27;100.00;64033.13;5093283;28;20397;-53
2022/06/20 06:15:06;;;;;;;;;;;;;;;-146.27;100.00;64033.13;5093328;28;20017;-52
2022/06/20 06:17:31;;;;;;;;;;;;;;;-146.27;100.00;64033.13;5093053;28;20086;-51
2022/06/20 06:19:59;;;;;;;;;;;;;;;-146.27;100.00;64033.13;5092614;28;19916;-51
2022/06/20 06:22:36;;;;;;;;;;;;;;;-146.27;100.00;64033.13;5092617;28;19923;-51
2022/06/20 06:25:17;;;;;;;;;;;;;;;-146.27;100.00;64033.13;5092998;28;19969;-50
2022/06/20 06:27:43;;;;;;;;;;;;;;;-146.27;100.00;64033.13;5093090;28;19912;-52
2022/06/20 06:30:16;;;;;;;;;;;;;;;-146.27;100.00;64033.13;5093010;28;20304;-52
2022/06/20 06:32:44;;;;;;;;;;;;;;;-146.27;100.00;64033.13;5092922;28;19913;-50
2022/06/20 06:35:22;;;;;;;;;;;;;;;-146.27;100.00;64033.13;5092333;28;20015;-52
2022/06/20 06:38:03;;;;;;;;;;;;;;;-146.27;100.00;64033.13;5091626;28;20158;-52
2022/06/20 06:40:32;;;;;;;;;;;;;;;-146.27;100.00;64033.13;5092649;28;19916;-52
2022/06/20 06:42:59;;;;;;;;;;;;;;;-146.27;100.00;64033.13;5092448;28;19947;-53
2022/06/20 06:45:25;;;;;;;;;;;;;;;-146.27;100.00;64033.13;5092560;28;19916;-53
2022/06/20 06:47:57;;;;;;;;;;;;;;;-146.27;100.00;64033.13;5091842;28;19912;-51
2022/06/20 06:50:22;;;;;;;;;;;;;;;-146.27;100.00;64033.13;5092542;28;19912;-52
2022/06/20 06:52:55;;;;;;;;;;;;;;;-146.27;100.00;64033.13;5103854;28;20267;-52
2022/06/20 06:55:33;;;;;;;;;;;;;;;-146.27;100.00;64033.13;5111730;28;19930;-50
2022/06/20 06:58:06;;;;;;;;;;;;;;;-146.27;100.00;64033.13;5095714;27;20276;-52
2022/06/20 07:00:37;;;;;;;;;;;;;;;-146.27;100.00;64033.13;5080727;28;19916;-52
2022/06/20 07:03:06;;;;;;;;;;;;;;;-146.27;100.00;64033.13;5103835;28;19932;-52
2022/06/20 07:05:42;;;;;;;;;;;;;;;-146.27;100.00;64033.13;5104913;28;20358;-52
2022/06/20 07:08:11;;;;;;;;;;;;;;;-146.27;100.00;64033.13;5095538;28;19916;-52
2022/06/20 07:10:44;;;;;;;;;;;;;;;-146.27;100.00;64033.13;5106860;28;19931;-52
2022/06/20 07:13:15;;;;;;;;;;;;;;;-146.27;100.00;64033.13;5102669;28;20363;-52
2022/06/20 07:15:42;;;;;;;;;;;;;;;-146.27;100.00;64033.13;5098445;28;19916;-54
2022/06/20 07:18:15;;;;;;;;;;;;;;;-146.27;100.00;64033.13;5109132;28;19916;-53
2022/06/20 07:20:42;;;;;;;;;;;;;;;-146.27;100.00;64033.13;5099905;28;19966;-52
2022/06/20 07:23:13;;;;;;;;;;;;;;;-146.27;100.00;64033.13;5102576;28;19915;-51
2022/06/20 07:25:43;;;;;;;;;;;;;;;-146.27;100.00;64033.13;5105740;28;19915;-51
2022/06/20 07:28:26;;;;;;;;;;;;;;;-146.27;100.00;64033.13;5095037;28;19920;-51
2022/06/20 07:30:55;;;;;;;;;;;;;;;-146.27;100.00;64033.13;5104399;28;20106;-54
2022/06/20 07:33:33;;;;;;;;;;;;;;;-146.27;100.00;64033.13;5102654;28;19915;-53
2022/06/20 07:36:00;;;;;;;;;;;;;;;-146.27;100.00;64033.13;5094885;28;19967;-52
2022/06/20 07:38:32;;;;;;;;;;;;;;;-146.27;100.00;64033.13;5086627;28;19916;-37
2022/06/20 07:41:09;;;;;;;;;;;;;;;-146.27;100.00;64033.13;5090688;28;19912;-38
2022/06/20 07:43:37;;;;;;;;;;;;;;;-146.27;100.00;64033.13;5089557;28;19935;-38
2022/06/20 07:46:06;;;;;;;;;;;;;;;-146.27;100.00;64033.13;5089261;28;19955;-37
2022/06/20 07:48:34;;;;;;;;;;;;;;;-146.27;100.00;64033.13;5091046;28;19916;-38
2022/06/20 07:51:06;;;;;;;;;;;;;;;-146.27;100.00;64033.13;5090830;28;19912;-38
2022/06/20 07:53:34;;;;;;;;;;;;;;;-146.27;100.00;64033.13;5090348;28;19912;-37
2022/06/20 07:56:10;;;;;;;;;;;;;;;-146.27;100.00;64033.13;5090875;28;20529;-38
2022/06/20 07:58:37;;;;;;;;;;;;;;;-146.27;100.00;64033.13;5089012;28;19912;-37
2022/06/20 08:01:05;;;;;;;;;;;;;;;-146.27;100.00;64033.13;5090863;28;19935;-38
2022/06/20 08:03:35;;;;;;;;;;;;;;;-146.27;100.00;64033.13;5088008;28;20284;-38
2022/06/20 08:06:16;;;;;;;;;;;;;;;-146.27;100.00;64033.13;5090257;28;19912;-38
2022/06/20 08:08:47;;;;;;;;;;;;;;;-146.27;100.00;64033.13;5089100;28;20406;-38
2022/06/20 08:11:41;;;;;;;;;;;;;;;-146.27;100.00;64033.13;5087808;28;19962;-38
2022/06/20 08:14:27;;;;;;;;;;;;;;;-146.27;100.00;64033.13;5086791;28;19912;-37
2022/06/20 08:16:54;;;;;;;;;;;;;;;-146.27;100.00;64033.13;5087550;28;19912;-37
2022/06/20 08:19:19;;;;;;;;;;;;;;;-146.27;100.00;64033.13;5090256;28;19912;-38
2022/06/20 08:21:47;;;;;;;;;;;;;;;-146.27;100.00;64033.13;5105886;28;19912;-37
2022/06/20 08:24:12;;;;;;;;;;;;;;;-146.27;100.00;64033.13;5109896;28;19923;-37
2022/06/20 08:26:41;;;;;;;;;;;;;;;-146.27;100.00;64033.13;5089814;28;19916;-38
2022/06/20 08:29:11;;;;;;;;;;;;;;;-146.27;100.00;64033.13;5099305;28;19955;-38
2022/06/20 08:32:03;;;;;;;;;;;;;;;-146.27;100.00;64033.13;5094195;28;19937;-37
2022/06/20 08:34:33;;;;;;;;;;;;;;;-146.27;100.00;64033.13;5087994;28;20359;-37
2022/06/20 08:37:04;;;;;;;;;;;;;;;-146.27;100.00;64033.13;5089424;28;19920;-37
2022/06/20 08:39:33;;;;;;;;;;;;;;;-146.27;100.00;64033.13;5089717;28;20354;-38
2022/06/20 08:42:07;;;;;;;;;;;;;;;-146.27;100.00;64033.13;5089033;28;19912;-37
2022/06/20 08:44:35;;;;;;;;;;;;;;;-146.27;100.00;64033.13;5089543;28;20244;-37
2022/06/20 08:47:36;;;;;;;;;;;;;;;-146.27;100.00;64033.13;5090215;28;19912;-37
2022/06/20 08:50:07;;;;;;;;;;;;;;;-146.27;100.00;64033.13;5068126;28;19998;-37
2022/06/20 08:52:38;;;;;;;;;;;;;;;-146.27;100.00;64033.13;5086776;28;19986;-37
2022/06/20 08:55:06;;;;;;;;;;;;;;;-146.27;100.00;64033.13;5090880;28;19912;-37
2022/06/20 08:57:40;;;;;;;;;;;;;;;-146.27;100.00;64033.13;5090570;28;19965;-38
2022/06/20 09:00:14;;;;;;;;;;;;;;;-146.27;100.00;64033.13;5090718;28;20003;-37
2022/06/20 09:02:40;;;;;;;;;;;;;;;-146.27;100.00;64033.13;5090148;28;19912;-38
2022/06/20 09:05:05;;;;;;;;;;;;;;;-146.27;100.00;64033.13;5090496;28;20388;-38
2022/06/20 09:07:42;;;;;;;;;;;;;;;-146.27;100.00;64033.13;5089430;28;19931;-37
2022/06/20 09:10:10;;;;;;;;;;;;;;;-146.27;100.00;64033.13;5090167;28;19918;-37
2022/06/20 09:12:39;;;;;;;;;;;;;;;-146.27;100.00;64033.13;5089555;28;19912;-38
2022/06/20 09:15:42;;;;;;;;;;;;;;;-146.27;100.00;64033.13;5090447;28;19965;-38
2022/06/20 09:18:21;;;;;;;;;;;;;;;-146.27;100.00;64033.13;5047914;28;19923;-38
2022/06/20 09:20:51;;;;;;;;;;;;;;;-146.27;100.00;64033.13;5050964;28;20483;-38
2022/06/20 09:23:26;;;;;;;;;;;;;;;-146.27;100.00;64033.13;5075836;28;19970;-38
2022/06/20 09:26:09;;;;;;;;;;;;;;;-146.27;100.00;64033.13;5093816;28;19912;-38
2022/06/20 09:28:44;;;;;;;;;;;;;;;-146.27;100.00;64033.13;5093671;28;20023;-36
2022/06/20 09:31:22;;;;;;;;;;;;;;;-146.27;100.00;64033.13;5093722;28;19912;-38
2022/06/20 09:34:06;;;;;;;;;;;;;;;-146.27;100.00;64033.13;5093531;28;19922;-38
2022/06/20 09:36:43;;;;;;;;;;;;;;;-146.27;100.00;64033.13;5093675;28;19971;-37
2022/06/20 09:39:12;;;;;;;;;;;;;;;-146.27;100.00;64033.13;5093204;28;20377;-37
2022/06/20 09:41:55;;;;;;;;;;;;;;;-146.27;100.00;64033.13;5093653;28;19969;-38
2022/06/20 09:44:28;;;;;;;;;;;;;;;-146.27;100.00;64033.13;5093200;28;19916;-38
2022/06/20 09:47:11;;;;;;;;;;;;;;;-146.27;100.00;64033.13;5093202;28;19999;-38
2022/06/20 09:49:55;;;;;;;;;;;;;;;-146.27;100.00;64033.13;5092988;28;19913;-38
2022/06/20 09:52:40;;;;;;;;;;;;;;;-146.27;100.00;64033.13;5093002;28;19969;-37
2022/06/20 09:55:11;;;;;;;;;;;;;;;-146.27;100.00;64033.13;5093551;28;20002;-37
2022/06/20 09:57:57;;;;;;;;;;;;;;;-146.27;100.00;64033.13;5093573;28;20025;-37
2022/06/20 10:00:36;;;;;;;;;;;;;;;-146.27;100.00;64033.13;5093200;28;20366;-38
2022/06/20 10:03:04;;;;;;;;;;;;;;;-146.27;100.00;64033.13;5093524;28;19924;-38
2022/06/20 10:05:40;;;;;;;;;;;;;;;-146.27;100.00;64033.13;5093579;28;19976;-38
2022/06/20 10:08:12;;;;;;;;;;;;;;;-146.27;100.00;64033.13;5093262;28;20174;-45
2022/06/20 10:10:59;;;;;;;;;;;;;;;-146.27;100.00;64033.13;5092987;28;19919;-38
2022/06/20 10:13:25;;;;;;;;;;;;;;;-146.27;100.00;64033.13;5093309;28;19973;-37
2022/06/20 10:16:10;;;;;;;;;;;;;;;-146.27;100.00;64033.13;5093053;28;19912;-39
2022/06/20 10:18:35;;;;;;;;;;;;;;;-146.27;100.00;64033.13;5091657;28;19919;-37
2022/06/20 10:21:19;;;;;;;;;;;;;;;-146.27;100.00;64033.13;5103746;28;19955;-37
2022/06/20 10:24:03;;;;;;;;;;;;;;;-146.27;100.00;64033.13;5113551;28;19942;-38
2022/06/20 10:26:45;;;;;;;;;;;;;;;-146.27;100.00;64033.13;5113507;28;19986;-38
2022/06/20 10:29:19;;;;;;;;;;;;;;;-146.27;100.00;64033.13;5112768;28;19915;-38
2022/06/20 10:31:49;;;;;;;;;;;;;;;-146.27;100.00;64033.13;5112688;28;19912;-39
2022/06/20 10:34:29;;;;;;;;;;;;;;;-146.27;100.00;64033.13;5112556;28;19924;-39
2022/06/20 10:37:04;;;;;;;;;;;;;;;-146.27;100.00;64033.13;5112950;28;19952;-39
2022/06/20 10:39:38;;;;;;;;;;;;;;;-146.27;100.00;64033.13;5113145;28;19976;-38
2022/06/20 10:42:04;;;;;;;;;;;;;;;-146.27;100.00;64033.13;5112796;28;20011;-37
2022/06/20 10:44:47;;;;;;;;;;;;;;;-146.27;100.00;64033.13;5112527;28;20045;-38
2022/06/20 10:47:20;;;;;;;;;;;;;;;-146.27;100.00;64033.13;5112927;28;19912;-38
2022/06/20 10:50:04;;;;;;;;;;;;;;;-146.27;100.00;64033.13;5113081;28;19922;-36
2022/06/20 10:52:42;;;;;;;;;;;;;;;-146.27;100.00;64033.13;5112503;28;20262;-36
2022/06/20 10:55:10;;;;;;;;;;;;;;;-146.27;100.00;64033.13;5112441;28;19954;-38
2022/06/20 10:57:54;;;;;;;;;;;;;;;-146.27;100.00;64033.13;5112471;28;19916;-36
2022/06/20 11:00:20;;;;;;;;;;;;;;;-146.27;100.00;64033.13;5112981;28;19995;-37
2022/06/20 11:03:06;;;;;;;;;;;;;;;-146.27;100.00;64033.13;5112680;28;20383;-38
2022/06/20 11:05:40;;;;;;;;;;;;;;;-146.27;100.00;64033.13;5100963;28;19915;-38
2022/06/20 11:08:26;;;;;;;;;;;;;;;-146.27;100.00;64033.13;5112824;28;19922;-36
2022/06/20 11:11:06;;;;;;;;;;;;;;;-146.27;100.00;64033.13;5112721;28;20413;-39
2022/06/20 11:13:39;;;;;;;;;;;;;;;-146.27;100.00;64033.13;5112245;28;19919;-36
2022/06/20 11:16:07;;;;;;;;;;;;;;;-146.27;100.00;64033.13;5112206;28;19912;-36
2022/06/20 11:18:40;;;;;;;;;;;;;;;-146.27;100.00;64033.13;5112479;28;19999;-38
2022/06/20 11:21:29;;;;;;;;;;;;;;;-146.27;100.00;64033.13;5111197;28;20431;-39
2022/06/20 11:23:57;;;;;;;;;;;;;;;-146.27;100.00;64033.13;5108866;28;19916;-37
2022/06/20 11:26:32;;;;;;;;;;;;;;;-146.27;100.00;64033.13;5112000;28;20367;-37
2022/06/20 11:29:03;;;;;;;;;;;;;;;-146.27;100.00;64033.13;5112248;28;19919;-37
2022/06/20 11:31:44;;;;;;;;;;;;;;;-146.27;100.00;64033.13;5112100;28;19916;-37
2022/06/20 11:34:16;;;;;;;;;;;;;;;-146.27;100.00;64033.13;5111729;28;19916;-38
2022/06/20 11:37:00;;;;;;;;;;;;;;;-146.27;100.00;64033.13;5112020;28;19915;-38
2022/06/20 11:39:34;;;;;;;;;;;;;;;-146.27;100.00;64033.13;5111995;28;19915;-38
2022/06/20 11:42:05;;;;;;;;;;;;;;;-146.27;100.00;64033.13;5110710;28;19912;-38
2022/06/20 11:44:39;;;;;;;;;;;;;;;-146.27;100.00;64033.13;5111728;28;19916;-38
2022/06/20 11:47:23;;;;;;;;;;;;;;;-146.27;100.00;64033.13;5111275;28;19941;-37
2022/06/20 11:49:57;;;;;;;;;;;;;;;-146.27;100.00;64033.13;5111668;28;19912;-37
2022/06/20 11:52:31;;;;;;;;;;;;;;;-146.27;100.00;64033.13;5111505;28;19916;-37
2022/06/20 11:55:04;;;;;;;;;;;;;;;-146.27;100.00;64033.13;5111791;28;20026;-39
2022/06/20 11:57:41;;;;;;;;;;;;;;;-146.27;100.00;64033.13;5111218;28;19916;-36
2022/06/20 12:00:09;;;;;;;;;;;;;;;-146.27;100.00;64033.13;5111758;28;20377;-38
2022/06/20 12:02:37;;;;;;;;;;;;;;;-146.27;100.00;64033.13;5111383;28;20395;-37
2022/06/20 12:05:17;;;;;;;;;;;;;;;-146.27;100.00;64033.13;5111354;28;19923;-38
2022/06/20 12:07:47;;;;;;;;;;;;;;;-146.27;100.00;64033.13;5111235;28;20015;-37
2022/06/20 12:10:15;;;;;;;;;;;;;;;-146.27;100.00;64033.13;5111202;28;19918;-37
2022/06/20 12:13:01;;;;;;;;;;;;;;;-146.27;100.00;64033.13;5111283;28;19911;-44
2022/06/20 12:15:26;;;;;;;;;;;;;;;-146.27;100.00;64033.13;5111086;28;19950;-38
2022/06/20 12:17:59;;;;;;;;;;;;;;;-146.27;100.00;64033.13;5111837;27;20395;-38
2022/06/20 12:23:24;;;;;;;;;;;;;;;-146.27;100.00;64033.13;5110974;28;19980;-38
2022/06/20 12:25:59;;;;;;;;;;;;;;;-146.27;100.00;64033.13;5111142;28;19915;-38
2022/06/20 12:28:24;;;;;;;;;;;;;;;-146.27;100.00;64033.13;5111010;28;19999;-38
2022/06/20 12:31:08;;;;;;;;;;;;;;;-146.27;100.00;64033.13;5111614;28;20386;-38
2022/06/20 12:33:38;;;;;;;;;;;;;;;-146.27;100.00;64033.13;5111809;28;19977;-38
2022/06/20 12:36:29;;;;;;;;;;;;;;;-146.27;100.00;64033.13;5110937;28;19927;-37
2022/06/20 12:38:54;;;;;;;;;;;;;;;-146.27;100.00;64033.13;5102510;28;20379;-37
2022/06/20 12:41:21;;;;;;;;;;;;;;;-146.27;100.00;64033.13;5111057;28;19919;-37
2022/06/20 12:43:59;;;;;;;;;;;;;;;-146.27;100.00;64033.13;5111090;28;19916;-37
2022/06/20 12:46:31;;;;;;;;;;;;;;;-146.27;100.00;64033.13;5110890;28;20014;-38
2022/06/20 12:49:15;;;;;;;;;;;;;;;-146.27;100.00;64033.13;5110945;28;19911;-38
2022/06/20 12:51:46;;;;;;;;;;;;;;;-146.27;100.00;64033.13;5110557;28;19911;-37